Time;durP1;ratioP1;P1;durP2;ratioP2;P2;SDS_P1;SDS_P2;PMS_P1;PMS_P2;Temp;Humidity;BMP_temperature;BMP_pressure;BME280_temperature;BME280_humidity;BME280_pressure;Samples;Min_cycle;Max_cycle;Signal;HPM_P1;HPM_P2
2024/01/31 00:01:54;;;;;;;5.40;1.20;;;;;;;;;;4885912;29;20070;-74
2024/01/31 00:04:20;;;;;;;5.38;1.13;;;;;;;;;;4900146;29;20094;-74
2024/01/31 00:06:50;;;;;;;3.63;1.52;;;;;;;;;;4904429;29;20079;-74
2024/01/31 00:09:16;;;;;;;8.23;1.50;;;;;;;;;;4900202;29;20040;-74
2024/01/31 00:11:42;;;;;;;3.42;1.00;;;;;;;;;;4902050;29;20123;-74
2024/01/31 00:14:08;;;;;;;7.55;1.33;;;;;;;;;;4899862;29;20047;-74
2024/01/31 00:16:34;;;;;;;4.85;1.10;;;;;;;;;;4900066;29;20086;-74
2024/01/31 00:19:01;;;;;;;7.45;1.25;;;;;;;;;;4900878;29;20043;-74
2024/01/31 00:21:27;;;;;;;5.10;1.02;;;;;;;;;;4899827;29;20040;-74
2024/01/31 00:23:54;;;;;;;5.70;1.10;;;;;;;;;;4887359;29;20043;-74
2024/01/31 00:26:20;;;;;;;4.80;1.13;;;;;;;;;;4917015;29;20055;-74
2024/01/31 00:28:47;;;;;;;11.45;2.08;;;;;;;;;;4918819;29;20052;-74
2024/01/31 00:31:13;;;;;;;4.00;1.15;;;;;;;;;;4917185;29;20094;-74
2024/01/31 00:33:39;;;;;;;6.50;1.85;;;;;;;;;;4900039;29;20128;-74
2024/01/31 00:36:06;;;;;;;5.07;1.40;;;;;;;;;;4918427;29;20452;-74
2024/01/31 00:38:32;;;;;;;11.52;1.60;;;;;;;;;;4900433;29;20087;-75
2024/01/31 00:40:58;;;;;;;7.88;1.23;;;;;;;;;;4899984;29;20389;-74
2024/01/31 00:43:24;;;;;;;4.63;1.13;;;;;;;;;;4899839;29;20036;-74
2024/01/31 00:45:50;;;;;;;3.25;1.13;;;;;;;;;;4903081;29;20099;-74
2024/01/31 00:48:16;;;;;;;9.70;1.92;;;;;;;;;;4885195;29;20048;-75
2024/01/31 00:50:42;;;;;;;4.20;0.98;;;;;;;;;;4899858;29;20051;-74
2024/01/31 00:53:08;;;;;;;5.45;1.95;;;;;;;;;;4899690;29;20130;-74
2024/01/31 00:55:34;;;;;;;2.13;1.00;;;;;;;;;;4907198;29;20051;-74
2024/01/31 00:58:00;;;;;;;5.78;1.00;;;;;;;;;;4892969;29;20044;-74
2024/01/31 01:00:27;;;;;;;3.90;1.10;;;;;;;;;;4899700;29;20043;-74
2024/01/31 01:02:53;;;;;;;3.90;1.27;;;5.90;99.90;;;;;;4899851;29;20040;-74
2024/01/31 01:05:20;;;;;;;7.15;1.27;;;5.10;99.90;;;;;;4904219;29;20047;-74
2024/01/31 01:07:46;;;;;;;6.18;1.17;;;;;;;;;;4914364;29;20056;-74
2024/01/31 01:10:13;;;;;;;4.53;1.25;;;;;;;;;;4909827;29;20134;-74
2024/01/31 01:12:39;;;;;;;5.25;1.50;;;;;;;;;;4916730;29;20040;-74
2024/01/31 01:15:06;;;;;;;3.30;1.08;;;;;;;;;;4903142;29;20068;-74
2024/01/31 01:17:32;;;;;;;3.28;1.00;;;;;;;;;;4903614;29;20058;-74
2024/01/31 01:19:58;;;;;;;3.97;1.20;;;;;;;;;;4922244;29;20044;-74
2024/01/31 01:22:24;;;;;;;3.55;1.20;;;;;;;;;;4922241;29;20146;-74
2024/01/31 01:24:50;;;;;;;7.15;1.17;;;;;;;;;;4903863;29;20036;-74
2024/01/31 01:27:16;;;;;;;4.00;1.67;;;;;;;;;;4902879;29;20083;-74
2024/01/31 01:29:42;;;;;;;6.15;1.77;;;;;;;;;;4903509;29;20054;-74
2024/01/31 01:32:08;;;;;;;7.57;1.85;;;;;;;;;;4902934;29;20047;-74
2024/01/31 01:34:35;;;;;;;7.47;1.52;;;;;;;;;;4916512;29;20051;-74
2024/01/31 01:37:01;;;;;;;8.93;1.23;;;;;;;;;;4921736;29;20042;-74
2024/01/31 01:39:27;;;;;;;4.93;1.73;;;;;;;;;;4891537;29;20075;-74
2024/01/31 01:41:53;;;;;;;10.23;1.65;;;;;;;;;;4902660;29;20099;-74
2024/01/31 01:44:19;;;;;;;7.03;1.23;;;;;;;;;;4906035;29;20405;-74
2024/01/31 01:46:45;;;;;;;4.65;1.20;;;;;;;;;;4902474;29;20081;-74
2024/01/31 01:49:14;;;;;;;8.98;1.67;;;;;;;;;;4907307;29;20048;-74
2024/01/31 01:51:41;;;;;;;10.00;1.85;;;5.80;99.90;;;;;;4908884;29;20043;-74
2024/01/31 01:54:12;;;;;;;3.30;1.23;;;;;;;;;;4919787;29;20031;-74
2024/01/31 01:56:38;;;;;;;2.65;1.20;;;;;;;;;;4921600;29;20380;-74
2024/01/31 01:59:04;;;;;;;4.70;1.27;;;;;;;;;;4917932;29;20146;-74
2024/01/31 02:01:30;;;;;;;4.38;1.30;;;;;;;;;;4902625;29;20036;-74
2024/01/31 02:03:57;;;;;;;3.20;1.15;;;;;;;;;;4910347;29;20395;-74
2024/01/31 02:06:25;;;;;;;7.38;1.20;;;5.60;99.90;;;;;;4905881;29;20431;-74
2024/01/31 02:08:52;;;;;;;6.57;1.23;;;;;;;;;;4900716;29;20467;-74
2024/01/31 02:11:18;;;;;;;5.05;1.30;;;;;;;;;;4915060;29;20122;-74
2024/01/31 02:13:44;;;;;;;4.85;1.25;;;;;;;;;;4902122;29;20084;-74
2024/01/31 02:16:10;;;;;;;6.22;1.30;;;;;;;;;;4904229;29;20099;-75
2024/01/31 02:18:36;;;;;;;3.25;1.10;;;;;;;;;;4902009;29;20071;-74
2024/01/31 02:21:03;;;;;;;6.15;1.30;;;;;;;;;;4887775;29;20519;-74
2024/01/31 02:23:29;;;;;;;4.50;1.23;;;;;;;;;;4913550;29;20040;-74
2024/01/31 02:25:55;;;;;;;9.38;1.40;;;;;;;;;;4902296;29;20051;-74
2024/01/31 02:28:21;;;;;;;10.07;1.70;;;;;;;;;;4902255;29;20123;-74
2024/01/31 02:30:47;;;;;;;4.22;1.00;;;;;;;;;;4902158;29;20127;-74
2024/01/31 02:33:13;;;;;;;6.28;1.60;;;;;;;;;;4901853;29;20048;-74
2024/01/31 02:35:39;;;;;;;8.50;1.80;;;;;;;;;;4911329;29;20404;-74
2024/01/31 02:38:05;;;;;;;5.07;1.35;;;;;;;;;;4901968;29;20119;-74
2024/01/31 02:40:32;;;;;;;3.95;1.17;;;;;;;;;;4905407;29;20039;-74
2024/01/31 02:42:58;;;;;;;4.15;1.10;;;;;;;;;;4920457;29;20413;-74
2024/01/31 02:45:24;;;;;;;8.05;1.45;;;;;;;;;;4905071;29;20465;-74
2024/01/31 02:47:50;;;;;;;11.40;1.88;;;;;;;;;;4901521;29;20052;-74
2024/01/31 02:50:17;;;;;;;9.07;1.13;;;;;;;;;;4904288;29;20035;-74
2024/01/31 02:52:43;;;;;;;7.97;1.40;;;;;;;;;;4901626;29;20063;-74
2024/01/31 02:55:09;;;;;;;4.10;1.45;;;;;;;;;;4907349;29;20048;-74
2024/01/31 02:57:35;;;;;;;4.97;1.05;;;;;;;;;;4903597;29;20040;-74
2024/01/31 03:00:02;;;;;;;3.08;1.40;;;;;;;;;;4903417;29;20043;-74
2024/01/31 03:02:28;;;;;;;4.78;1.10;;;;;;;;;;4904879;29;20080;-74
2024/01/31 03:04:54;;;;;;;3.17;1.00;;;;;;;;;;4904475;29;20046;-74
2024/01/31 03:07:20;;;;;;;3.75;1.20;;;;;;;;;;4907361;29;20071;-74
2024/01/31 03:09:46;;;;;;;6.57;1.30;;;;;;;;;;4901486;29;20099;-74
2024/01/31 03:12:12;;;;;;;5.65;1.10;;;;;;;;;;4901281;29;20135;-74
2024/01/31 03:14:38;;;;;;;5.47;1.17;;;;;;;;;;4901921;29;20044;-74
2024/01/31 03:17:04;;;;;;;5.50;1.30;;;;;;;;;;4919160;29;20043;-74
2024/01/31 03:19:32;;;;;;;4.18;1.30;;;;;;;;;;4919888;29;20123;-74
2024/01/31 03:21:58;;;;;;;6.10;1.20;;;;;;;;;;4913332;29;20036;-74
2024/01/31 03:24:24;;;;;;;4.32;1.08;;;;;;;;;;4900962;29;20047;-74
2024/01/31 03:26:51;;;;;;;4.50;1.15;;;;;;;;;;4915054;29;20044;-74
2024/01/31 03:29:17;;;;;;;7.57;1.33;;;;;;;;;;4900874;29;20040;-74
2024/01/31 03:31:43;;;;;;;5.22;1.10;;;;;;;;;;4900572;29;20139;-74
2024/01/31 03:34:09;;;;;;;5.90;1.25;;;;;;;;;;4884998;29;20111;-74
2024/01/31 03:36:35;;;;;;;5.97;1.38;;;;;;;;;;4915995;29;20040;-74
2024/01/31 03:39:01;;;;;;;5.47;1.48;;;;;;;;;;4900994;29;20051;-75
2024/01/31 03:41:28;;;;;;;6.10;1.17;;;;;;;;;;4900942;29;20040;-75
2024/01/31 03:43:55;;;;;;;4.65;1.10;;;5.60;99.90;;;;;;4900680;29;20040;-75
2024/01/31 03:46:21;;;;;;;2.70;1.08;;;;;;;;;;4913950;29;20052;-74
2024/01/31 03:48:47;;;;;;;4.45;1.00;;;;;;;;;;4904630;29;20131;-74
2024/01/31 03:51:20;;;;;;;3.00;1.00;;;5.70;99.90;;;;;;4900677;29;20071;-74
2024/01/31 03:53:47;;;;;;;5.75;1.35;;;;;;;;;;4900356;29;20054;-74
2024/01/31 03:56:13;;;;;;;4.45;1.48;;;;;;;;;;4907493;29;20091;-74
2024/01/31 03:58:40;;;;;;;3.78;1.15;;;;;;;;;;4908454;29;20048;-74
2024/01/31 04:01:06;;;;;;;5.25;2.08;;;;;;;;;;4900434;29;20129;-74
2024/01/31 04:03:32;;;;;;;4.40;2.30;;;;;;;;;;4884735;29;20139;-74
2024/01/31 04:05:58;;;;;;;8.10;1.70;;;;;;;;;;4905336;29;20397;-74
2024/01/31 04:08:24;;;;;;;7.93;1.35;;;;;;;;;;4912623;29;20043;-74
2024/01/31 04:10:52;;;;;;;4.70;1.20;;;;;;;;;;4905395;29;20036;-74
2024/01/31 04:13:18;;;;;;;8.65;1.52;;;;;;;;;;4900305;29;20095;-74
2024/01/31 04:15:45;;;;;;;6.40;1.30;;;;;;;;;;4901032;29;20036;-74
2024/01/31 04:18:11;;;;;;;4.10;1.20;;;;;;;;;;4886722;29;20476;-74
2024/01/31 04:20:41;;;;;;;4.40;1.30;;;;;;;;;;4918482;29;20091;-74
2024/01/31 04:23:07;;;;;;;3.03;1.20;;;;;;;;;;4917083;29;20107;-74
2024/01/31 04:25:34;;;;;;;4.78;1.33;;;;;;;;;;4906408;29;20046;-74
2024/01/31 04:28:00;;;;;;;3.88;1.17;;;;;;;;;;4906313;29;20048;-74
2024/01/31 04:30:26;;;;;;;5.63;2.05;;;;;;;;;;4899809;29;20489;-74
2024/01/31 04:32:52;;;;;;;5.20;1.55;;;;;;;;;;4899784;29;20056;-74
2024/01/31 04:35:18;;;;;;;4.88;1.50;;;;;;;;;;4900793;29;20084;-74
2024/01/31 04:37:44;;;;;;;3.75;1.33;;;;;;;;;;4909220;29;20043;-74
2024/01/31 04:40:11;;;;;;;3.97;1.48;;;;;;;;;;4899882;29;20516;-74
2024/01/31 04:42:37;;;;;;;6.60;1.83;;;;;;;;;;4907948;29;20445;-74
2024/01/31 04:45:03;;;;;;;7.10;1.50;;;;;;;;;;4907126;29;20468;-74
2024/01/31 04:47:29;;;;;;;5.20;1.17;;;;;;;;;;4899338;29;20115;-74
2024/01/31 04:49:56;;;;;;;9.55;1.52;;;;;;;;;;4899561;29;20052;-74
2024/01/31 04:52:22;;;;;;;6.40;1.60;;;;;;;;;;4905315;29;20126;-74
2024/01/31 04:54:50;;;;;;;7.47;1.50;;;;;;;;;;4916808;29;20043;-74
2024/01/31 04:57:16;;;;;;;6.55;1.45;;;;;;;;;;4918208;29;20050;-74
2024/01/31 04:59:42;;;;;;;7.63;1.88;;;;;;;;;;4898280;29;20044;-74
2024/01/31 05:02:09;;;;;;;7.68;1.48;;;;;;;;;;4899579;29;20128;-74
2024/01/31 05:04:36;;;;;;;9.85;1.88;;;;;;;;;;4900313;29;20043;-74
2024/01/31 05:07:02;;;;;;;5.43;1.40;;;;;;;;;;4918321;29;20047;-74
2024/01/31 05:09:28;;;;;;;5.40;1.70;;;;;;;;;;4918177;29;20399;-74
2024/01/31 05:11:54;;;;;;;5.25;1.38;;;;;;;;;;4899380;29;20044;-74
2024/01/31 05:14:20;;;;;;;8.13;2.53;;;;;;;;;;4885442;29;20124;-74
2024/01/31 05:16:47;;;;;;;6.68;1.42;;;;;;;;;;4901052;29;20485;-74
2024/01/31 05:19:13;;;;;;;5.03;1.80;;;;;;;;;;4899591;29;20056;-74
2024/01/31 05:21:52;;;;;;;3.80;1.75;;;;;;;;;;4899465;29;20051;-74
2024/01/31 05:24:19;;;;;;;8.38;1.65;;;;;;;;;;4901013;29;20134;-74
2024/01/31 05:26:46;;;;;;;6.55;1.67;;;;;;;;;;4908638;29;20075;-74
2024/01/31 05:29:12;;;;;;;8.95;1.67;;;;;;;;;;4913347;29;20134;-74
2024/01/31 05:31:38;;;;;;;10.90;1.73;;;;;;;;;;4890862;29;20044;-74
2024/01/31 05:34:05;;;;;;;5.05;1.40;;;;;;;;;;4899291;29;20471;-74
2024/01/31 05:36:31;;;;;;;8.93;1.75;;;;;;;;;;4899257;29;20136;-74
2024/01/31 05:38:57;;;;;;;6.97;1.60;;;;;;;;;;4900545;29;20382;-74
2024/01/31 05:41:23;;;;;;;4.88;1.52;;;;;;;;;;4906758;29;20118;-74
2024/01/31 05:43:49;;;;;;;6.50;1.80;;;;;;;;;;4902780;29;20077;-74
2024/01/31 05:46:17;;;;;;;8.50;1.70;;;;;;;;;;4899137;29;20131;-74
2024/01/31 05:48:43;;;;;;;3.70;1.25;;;5.00;99.90;;;;;;4898832;29;20111;-74
2024/01/31 05:51:09;;;;;;;8.63;1.42;;;;;;;;;;4899118;29;20048;-74
2024/01/31 05:53:36;;;;;;;5.07;1.60;;;;;;;;;;4899091;29;20040;-74
2024/01/31 05:56:03;;;;;;;6.63;1.35;;;;;;;;;;4899796;29;20040;-74
2024/01/31 05:58:29;;;;;;;5.38;1.63;;;;;;;;;;4906261;29;20115;-74
2024/01/31 06:00:56;;;;;;;7.07;1.58;;;;;;;;;;4921427;29;20392;-74
2024/01/31 06:03:24;;;;;;;7.00;1.60;;;;;;;;;;4902791;29;20500;-74
2024/01/31 06:05:50;;;;;;;5.22;1.60;;;;;;;;;;4909103;29;20051;-74
2024/01/31 06:08:18;;;;;;;7.38;2.13;;;;;;;;;;4904440;29;20119;-74
2024/01/31 06:10:44;;;;;;;6.53;1.83;;;;;;;;;;4902300;29;20520;-75
2024/01/31 06:13:10;;;;;;;4.55;1.38;;;;;;;;;;4904741;29;20059;-74
2024/01/31 06:15:36;;;;;;;6.57;1.60;;;;;;;;;;4901983;29;20059;-74
2024/01/31 06:18:02;;;;;;;8.75;1.90;;;;;;;;;;4902085;29;20063;-74
2024/01/31 06:20:28;;;;;;;5.57;1.60;;;;;;;;;;4902011;29;20119;-74
2024/01/31 06:22:54;;;;;;;8.25;2.50;;;;;;;;;;4910017;29;20036;-74
2024/01/31 06:25:20;;;;;;;7.53;1.70;;;;;;;;;;4915617;29;20114;-74
2024/01/31 06:27:47;;;;;;;5.28;1.50;;;;;;;;;;4913018;29;20046;-74
2024/01/31 06:30:19;;;;;;;4.18;1.40;;;;;;;;;;4903291;29;20039;-74
2024/01/31 06:32:47;;;;;;;4.90;1.67;;;;;;;;;;4901744;29;20047;-74
2024/01/31 06:35:13;;;;;;;4.30;1.50;;;;;;;;;;4911700;29;20460;-74
2024/01/31 06:37:39;;;;;;;6.78;1.88;;;;;;;;;;4919864;29;20045;-73
2024/01/31 06:40:08;;;;;;;6.90;1.77;;;4.90;99.90;;;;;;4902741;29;20044;-74
2024/01/31 06:42:34;;;;;;;5.10;1.67;;;;;;;;;;4902704;29;20050;-74
2024/01/31 06:45:00;;;;;;;7.20;2.05;;;;;;;;;;4901496;29;20040;-74
2024/01/31 06:47:26;;;;;;;4.40;1.73;;;;;;;;;;4901233;29;20052;-75
2024/01/31 06:49:52;;;;;;;8.80;2.08;;;;;;;;;;4901413;29;20050;-74
2024/01/31 06:52:20;;;;;;;4.88;1.60;;;;;;;;;;4901775;29;20122;-74
2024/01/31 06:54:47;;;;;;;2.70;1.50;;;;;;;;;;4902165;29;20067;-74
2024/01/31 06:57:13;;;;;;;5.07;1.60;;;;;;;;;;4901493;29;20052;-74
2024/01/31 06:59:39;;;;;;;6.50;1.70;;;;;;;;;;4901402;29;20044;-74
2024/01/31 07:02:05;;;;;;;6.18;2.00;;;;;;;;;;4901586;29;20083;-74
2024/01/31 07:04:31;;;;;;;4.68;1.80;;;;;;;;;;4905100;29;20048;-74
2024/01/31 07:06:57;;;;;;;3.97;2.10;;;;;;;;;;4901326;29;20555;-74
2024/01/31 07:09:23;;;;;;;4.40;2.05;;;;;;;;;;4909862;29;20046;-74
2024/01/31 07:11:50;;;;;;;8.60;2.15;;;;;;;;;;4919617;29;20082;-74
2024/01/31 07:14:16;;;;;;;5.32;2.00;;;;;;;;;;4905458;29;20043;-74
2024/01/31 07:16:42;;;;;;;4.80;2.17;;;;;;;;;;4914020;29;20047;-74
2024/01/31 07:19:08;;;;;;;8.05;2.47;;;;;;;;;;4916873;29;20039;-74
2024/01/31 07:21:34;;;;;;;5.18;2.25;;;;;;;;;;4904299;29;20157;-74
2024/01/31 07:24:00;;;;;;;7.47;2.58;;;;;;;;;;4906710;29;20028;-74
2024/01/31 07:26:26;;;;;;;4.72;2.50;;;;;;;;;;4901871;29;20039;-75
2024/01/31 07:28:53;;;;;;;5.65;2.50;;;;;;;;;;4904212;29;20043;-76
2024/01/31 07:31:19;;;;;;;5.72;2.70;;;;;;;;;;4887656;29;20040;-75
2024/01/31 07:33:46;;;;;;;6.65;2.97;;;;;;;;;;4903479;29;20099;-75
2024/01/31 07:36:12;;;;;;;3.83;2.72;;;;;;;;;;4899101;29;20206;-75
2024/01/31 07:38:47;;;;;;;6.00;3.17;;;;;;;;;;4899721;29;20040;-75
2024/01/31 07:41:14;;;;;;;4.30;2.53;;;;;;;;;;4916417;29;20055;-75
2024/01/31 07:43:41;;;;;;;3.95;2.70;;;;;;;;;;4902328;29;20401;-75
2024/01/31 07:46:07;;;;;;;4.95;2.90;;;;;;;;;;4890124;29;20497;-75
2024/01/31 07:48:33;;;;;;;7.50;3.53;;;;;;;;;;4890086;29;20054;-75
2024/01/31 07:51:03;;;;;;;5.63;3.05;;;;;;;;;;4916975;29;20044;-75
2024/01/31 07:53:29;;;;;;;7.68;2.97;;;;;;;;;;4900129;29;20134;-74
2024/01/31 07:55:55;;;;;;;5.40;3.10;;;;;;;;;;4916072;29;20134;-75
2024/01/31 07:58:22;;;;;;;11.40;3.50;;;;;;;;;;4898158;29;20044;-74
2024/01/31 08:00:48;;;;;;;9.10;3.20;;;;;;;;;;4915718;29;20040;-73
2024/01/31 08:03:14;;;;;;;6.88;2.80;;;;;;;;;;4899834;29;20102;-73
2024/01/31 08:05:40;;;;;;;5.97;3.10;;;;;;;;;;4899973;29;20115;-74
2024/01/31 08:08:06;;;;;;;9.15;3.83;;;;;;;;;;4915975;29;20076;-74
2024/01/31 08:10:32;;;;;;;5.88;3.35;;;;;;;;;;4923487;29;20054;-74
2024/01/31 08:12:59;;;;;;;4.78;3.50;;;;;;;;;;4900299;29;20044;-74
2024/01/31 08:15:25;;;;;;;8.73;3.85;;;;;;;;;;4915238;29;20043;-74
2024/01/31 08:17:51;;;;;;;7.97;3.40;;;;;;;;;;4907110;29;20046;-74
2024/01/31 08:20:17;;;;;;;6.03;3.88;;;;;;;;;;4904033;29;20044;-74
2024/01/31 08:22:43;;;;;;;7.75;3.95;;;;;;;;;;4907108;29;20044;-74
2024/01/31 08:25:09;;;;;;;8.65;4.13;;;;;;;;;;4907850;29;20043;-74
2024/01/31 08:27:35;;;;;;;8.30;4.20;;;;;;;;;;4902500;29;20114;-73
2024/01/31 08:30:03;;;;;;;4.75;3.83;;;;;;;;;;4908272;29;20047;-74
2024/01/31 08:32:35;;;;;;;8.20;4.28;;;;;;;;;;4904515;29;20457;-74
2024/01/31 08:35:02;;;;;;;8.65;5.10;;;;;;;;;;4907111;29;20119;-74
2024/01/31 08:37:28;;;;;;;6.70;4.68;;;;;;;;;;4895204;29;20046;-74
2024/01/31 08:39:54;;;;;;;5.80;4.82;;;;;;;;;;4910556;29;20095;-74
2024/01/31 08:42:20;;;;;;;8.43;5.28;;;;;;;;;;4899704;29;20506;-74
2024/01/31 08:44:46;;;;;;;7.25;5.05;;;;;;;;;;4913333;29;20388;-74
2024/01/31 08:47:12;;;;;;;6.30;5.07;;;;;;;;;;4918233;29;20048;-74
2024/01/31 08:49:38;;;;;;;9.00;5.40;;;;;;;;;;4912953;29;20548;-74
2024/01/31 08:52:05;;;;;;;8.88;5.40;;;;;;;;;;4909175;29;20044;-75
2024/01/31 08:54:31;;;;;;;10.45;6.28;;;;;;;;;;4915256;29;20047;-75
2024/01/31 08:56:57;;;;;;;8.63;5.45;;;;;;;;;;4918365;29;20047;-74
2024/01/31 08:59:23;;;;;;;8.15;6.25;;;;;;;;;;4918221;29;20047;-73
2024/01/31 09:01:49;;;;;;;8.35;6.10;;;;;;;;;;4918393;29;20103;-74
2024/01/31 09:04:15;;;;;;;8.35;5.90;;;;;;;;;;4918308;29;20107;-74
2024/01/31 09:06:42;;;;;;;9.43;6.07;;;;;;;;;;4902643;29;20044;-74
2024/01/31 09:09:08;;;;;;;8.73;6.82;;;;;;;;;;4918354;29;20131;-75
2024/01/31 09:11:34;;;;;;;7.95;6.03;;;;;;;;;;4918817;29;20158;-74
2024/01/31 09:14:00;;;;;;;9.85;6.00;;;;;;;;;;4918521;29;20043;-72
2024/01/31 09:16:26;;;;;;;6.82;5.55;;;;;;;;;;4918168;29;20126;-74
2024/01/31 09:18:52;;;;;;;8.57;6.13;;;;;;;;;;4899578;29;20099;-73
2024/01/31 09:21:22;;;;;;;10.05;6.65;;;;;;;;;;4899398;29;20441;-74
2024/01/31 09:23:49;;;;;;;7.28;6.43;;;;;;;;;;4882667;29;20556;-74
2024/01/31 09:26:15;;;;;;;8.55;6.47;;;;;;;;;;4899274;29;20048;-75
2024/01/31 09:28:41;;;;;;;7.07;5.82;;;;;;;;;;4915330;29;20040;-74
2024/01/31 09:31:07;;;;;;;7.43;6.22;;;;;;;;;;4899458;29;20048;-74
2024/01/31 09:33:33;;;;;;;10.73;6.75;;;;;;;;;;4897290;29;20130;-74
2024/01/31 09:36:00;;;;;;;10.20;7.20;;;;;;;;;;4892292;29;20154;-74
2024/01/31 09:38:26;;;;;;;10.90;7.18;;;;;;;;;;4900439;29;20044;-75
2024/01/31 09:40:53;;;;;;;12.57;7.88;;;;;;;;;;4917980;29;20048;-75
2024/01/31 09:43:19;;;;;;;11.73;6.75;;;;;;;;;;4902295;29;20083;-75
2024/01/31 09:45:47;;;;;;;11.18;7.35;;;6.10;99.90;;;;;;4917686;29;20048;-74
2024/01/31 09:48:14;;;;;;;8.57;6.43;;;;;;;;;;4902656;29;20048;-74
2024/01/31 09:50:41;;;;;;;13.65;7.15;;;;;;;;;;4900294;29;20039;-74
2024/01/31 09:53:08;;;;;;;9.70;7.35;;;;;;;;;;4902766;29;20401;-75
2024/01/31 09:55:35;;;;;;;7.97;6.72;;;;;;;;;;4902104;29;20103;-74
2024/01/31 09:58:02;;;;;;;9.82;7.45;;;6.00;99.90;;;;;;4902440;29;20047;-74
2024/01/31 10:00:28;;;;;;;10.25;6.68;;;;;;;;;;4902283;29;20461;-74
2024/01/31 10:02:55;;;;;;;11.05;6.95;;;;;;;;;;4902671;29;20040;-74
2024/01/31 10:05:21;;;;;;;10.35;6.57;;;;;;;;;;4901977;29;20054;-74
2024/01/31 10:07:47;;;;;;;9.98;6.90;;;;;;;;;;4886898;29;20051;-75
2024/01/31 10:10:13;;;;;;;7.63;6.38;;;;;;;;;;4901034;29;20171;-74
2024/01/31 10:12:39;;;;;;;10.35;7.25;;;;;;;;;;4900772;29;20048;-75
2024/01/31 10:15:09;;;;;;;9.30;7.05;;;;;;;;;;4916800;29;20052;-75
2024/01/31 10:17:36;;;;;;;8.82;6.80;;;;;;;;;;4917752;29;20047;-74
2024/01/31 10:20:10;;;;;;;8.43;6.28;;;6.10;99.90;;;;;;4917741;29;20504;-75
2024/01/31 10:22:36;;;;;;;10.43;6.50;;;;;;;;;;4901968;29;20044;-74
2024/01/31 10:25:08;;;;;;;9.13;7.13;;;6.30;99.90;;;;;;4918087;29;20075;-76
2024/01/31 10:27:35;;;;;;;10.65;6.60;;;6.20;99.90;;;;;;4901988;29;20048;-76
2024/01/31 10:30:08;;;;;;;10.32;6.60;;;;;;;;;;4901844;29;20488;-75
2024/01/31 10:32:41;;;;;;;9.18;6.15;;;6.20;99.90;;;;;;4917822;29;20076;-75
2024/01/31 10:35:07;;;;;;;9.05;6.30;;;6.40;99.90;;;;;;4901749;29;20040;-74
2024/01/31 10:37:34;;;;;;;10.20;6.57;;;;;;;;;;4917716;29;20119;-74
2024/01/31 10:40:01;;;;;;;9.85;6.88;;;;;;;;;;4901640;29;20044;-77
2024/01/31 10:42:27;;;;;;;9.20;6.22;;;;;;;;;;4898415;29;20045;-75
2024/01/31 10:44:56;;;;;;;10.25;6.32;;;;;;;;;;4906245;29;20147;-74
2024/01/31 10:47:22;;;;;;;10.52;6.45;;;;;;;;;;4907647;29;20051;-74
2024/01/31 10:49:48;;;;;;;8.73;6.25;;;;;;;;;;4913201;29;20040;-75
2024/01/31 10:52:15;;;;;;;7.60;5.57;;;;;;;;;;4912352;29;20055;-75
2024/01/31 10:54:44;;;;;;;8.68;6.28;;;;;;;;;;4903488;29;20044;-75
2024/01/31 10:57:10;;;;;;;11.05;5.82;;;;;;;;;;4906823;29;20036;-74
2024/01/31 10:59:36;;;;;;;7.20;5.97;;;;;;;;;;4903276;29;20075;-75
2024/01/31 11:02:03;;;;;;;7.43;5.68;;;;;;;;;;4912205;29;20049;-75
2024/01/31 11:04:29;;;;;;;8.60;5.28;;;;;;;;;;4909023;29;21960;-74
2024/01/31 11:07:03;;;;;;;7.82;5.20;;;;;;;;;;4901171;29;20048;-74
2024/01/31 11:09:29;;;;;;;8.10;5.10;;;;;;;;;;4902160;29;20032;-74
2024/01/31 11:12:05;;;;;;;7.35;5.32;;;;;;;;;;4908366;29;20381;-74
2024/01/31 11:14:32;;;;;;;7.53;5.43;;;6.50;99.90;;;;;;4889267;29;20126;-74
2024/01/31 11:17:06;;;;;;;7.07;5.05;;;;;;;;;;4902169;29;20040;-73
2024/01/31 11:19:35;;;;;;;6.55;5.22;;;;;;;;;;4921566;29;20040;-73
2024/01/31 11:22:01;;;;;;;7.32;4.88;;;;;;;;;;4905082;29;20036;-73
2024/01/31 11:24:27;;;;;;;7.50;4.88;;;;;;;;;;4913127;29;20036;-73
2024/01/31 11:26:53;;;;;;;8.50;5.18;;;;;;;;;;4908188;29;20083;-72
2024/01/31 11:29:20;;;;;;;7.15;4.93;;;6.60;99.90;;;;;;4885264;29;20044;-72
2024/01/31 11:31:46;;;;;;;8.93;5.18;;;;;;;;;;4904873;29;20075;-72
2024/01/31 11:34:13;;;;;;;7.10;4.85;;;;;;;;;;4915848;29;20051;-72
2024/01/31 11:36:39;;;;;;;7.90;4.82;;;;;;;;;;4931709;29;20052;-73
2024/01/31 11:39:05;;;;;;;6.75;5.13;;;;;;;;;;4902799;29;20075;-73
2024/01/31 11:41:32;;;;;;;6.20;5.00;;;;;;;;;;4902661;29;20040;-72
2024/01/31 11:43:58;;;;;;;9.52;5.22;;;;;;;;;;4911557;29;20490;-72
2024/01/31 11:46:25;;;;;;;6.35;4.82;;;;;;;;;;4904830;29;20092;-76
2024/01/31 11:48:53;;;;;;;6.88;4.80;;;;;;;;;;4917492;29;20531;-73
2024/01/31 11:51:19;;;;;;;6.85;4.78;;;;;;;;;;4909993;29;20040;-74
2024/01/31 11:53:45;;;;;;;7.68;5.03;;;;;;;;;;4896156;29;20395;-74
2024/01/31 11:56:12;;;;;;;6.57;4.75;;;;;;;;;;4900860;29;20040;-75
2024/01/31 11:58:39;;;;;;;7.90;5.32;;;;;;;;;;4902306;29;20031;-74
2024/01/31 12:01:05;;;;;;;7.63;4.97;;;;;;;;;;4909884;29;20070;-74
2024/01/31 12:03:31;;;;;;;6.63;4.80;;;;;;;;;;4909816;29;20123;-74
2024/01/31 12:05:58;;;;;;;5.72;4.85;;;;;;;;;;4898431;29;20040;-74
2024/01/31 12:08:28;;;;;;;9.57;4.72;;;;;;;;;;4900081;29;20095;-74
2024/01/31 12:10:54;;;;;;;6.63;4.70;;;;;;;;;;4899810;29;20048;-73
2024/01/31 12:13:21;;;;;;;8.82;4.80;;;;;;;;;;4900852;29;20040;-74
2024/01/31 12:15:47;;;;;;;5.82;4.43;;;;;;;;;;4898990;29;20052;-74
2024/01/31 12:18:15;;;;;;;4.95;4.32;;;;;;;;;;4894575;29;20031;-73
2024/01/31 12:20:41;;;;;;;6.45;4.18;;;;;;;;;;4906059;29;20036;-74
2024/01/31 12:23:08;;;;;;;8.43;4.10;;;6.90;99.90;;;;;;4900292;29;20036;-74
2024/01/31 12:25:34;;;;;;;7.53;4.55;;;;;;;;;;4907266;29;20039;-74
2024/01/31 12:28:00;;;;;;;7.30;4.43;;;;;;;;;;4899992;29;20047;-74
2024/01/31 12:30:26;;;;;;;7.50;5.43;;;;;;;;;;4903512;29;20035;-74
2024/01/31 12:32:52;;;;;;;8.45;5.05;;;;;;;;;;4899534;29;20059;-74
2024/01/31 12:35:19;;;;;;;7.43;4.88;;;;;;;;;;4922873;29;20131;-75
2024/01/31 12:37:46;;;;;;;7.13;5.00;;;;;;;;;;4909801;29;20437;-74
2024/01/31 12:40:12;;;;;;;8.00;5.63;;;;;;;;;;4916268;29;20592;-74
2024/01/31 12:42:39;;;;;;;7.75;5.70;;;;;;;;;;4885404;29;20127;-75
2024/01/31 12:45:06;;;;;;;7.60;6.22;;;;;;;;;;4901378;29;20040;-74
2024/01/31 12:47:32;;;;;;;8.63;6.32;;;;;;;;;;4906784;29;20055;-74
2024/01/31 12:49:58;;;;;;;9.32;6.15;;;;;;;;;;4901068;29;20067;-75
2024/01/31 12:52:24;;;;;;;9.18;6.30;;;;;;;;;;4894005;29;20488;-74
2024/01/31 12:54:53;;;;;;;10.07;6.60;;;7.10;99.90;;;;;;4914576;29;20365;-74
2024/01/31 12:57:19;;;;;;;8.70;6.55;;;;;;;;;;4902087;29;20523;-74
2024/01/31 12:59:49;;;;;;;9.32;6.60;;;;;;;;;;4903408;29;20040;-74
2024/01/31 13:02:15;;;;;;;10.88;6.50;;;;;;;;;;4900632;29;20036;-75
2024/01/31 13:04:41;;;;;;;9.00;6.13;;;;;;;;;;4908330;29;20488;-75
2024/01/31 13:07:08;;;;;;;9.10;6.13;;;;;;;;;;4908788;29;20047;-74
2024/01/31 13:09:34;;;;;;;11.48;6.93;;;;;;;;;;4911352;29;20134;-75
2024/01/31 13:12:00;;;;;;;11.82;7.13;;;;;;;;;;4912671;29;20044;-75
2024/01/31 13:14:26;;;;;;;10.00;6.57;;;;;;;;;;4905565;29;20455;-74
2024/01/31 13:16:52;;;;;;;8.63;6.65;;;;;;;;;;4903275;29;20036;-75
2024/01/31 13:19:20;;;;;;;9.02;6.25;;;;;;;;;;4920189;29;20038;-75
2024/01/31 13:21:49;;;;;;;9.25;6.55;;;;;;;;;;4917648;29;20036;-75
2024/01/31 13:24:19;;;;;;;11.82;7.25;;;6.90;99.90;;;;;;4920231;29;20081;-74
2024/01/31 13:26:45;;;;;;;10.73;6.43;;;;;;;;;;4911131;29;20183;-74
2024/01/31 13:29:11;;;;;;;13.35;7.10;;;;;;;;;;4903386;29;20036;-73
2024/01/31 13:31:37;;;;;;;9.73;7.43;;;;;;;;;;4904879;29;20051;-74
2024/01/31 13:34:03;;;;;;;11.30;7.75;;;;;;;;;;4902881;29;20508;-74
2024/01/31 13:36:29;;;;;;;9.43;6.75;;;;;;;;;;4902799;29;20556;-75
2024/01/31 13:38:55;;;;;;;12.35;7.60;;;;;;;;;;4903804;29;20044;-74
2024/01/31 13:41:22;;;;;;;9.57;6.53;;;;;;;;;;4904190;29;20083;-74
2024/01/31 13:43:51;;;;;;;10.52;6.93;;;;;;;;;;4909194;29;20051;-75
2024/01/31 13:46:18;;;;;;;11.98;6.75;;;;;;;;;;4902454;29;20044;-74
2024/01/31 13:48:44;;;;;;;12.27;7.68;;;;;;;;;;4888930;29;20055;-75
2024/01/31 13:51:13;;;;;;;11.77;7.68;;;;;;;;;;4915368;29;20047;-75
2024/01/31 13:53:40;;;;;;;12.20;7.18;;;;;;;;;;4896019;29;20103;-74
2024/01/31 13:56:07;;;;;;;11.00;7.30;;;6.40;99.90;;;;;;4902489;29;20484;-73
2024/01/31 13:58:34;;;;;;;10.45;7.60;;;;;;;;;;4899108;29;20046;-73
2024/01/31 14:01:00;;;;;;;10.77;7.43;;;;;;;;;;4902621;29;20044;-73
2024/01/31 14:03:26;;;;;;;11.38;7.88;;;;;;;;;;4902551;29;20039;-73
2024/01/31 14:05:52;;;;;;;11.85;7.28;;;;;;;;;;4902579;29;20035;-73
2024/01/31 14:08:19;;;;;;;10.45;7.30;;;;;;;;;;4905396;29;20040;-73
2024/01/31 14:10:45;;;;;;;10.23;7.07;;;;;;;;;;4917500;29;20105;-73
2024/01/31 14:13:12;;;;;;;14.75;7.90;;;6.80;99.90;;;;;;4918513;29;20040;-73
2024/01/31 14:15:39;;;;;;;9.65;7.15;;;;;;;;;;4902017;29;20055;-73
2024/01/31 14:18:05;;;;;;;13.27;7.70;;;;;;;;;;4887049;29;20468;-73
2024/01/31 14:20:32;;;;;;;13.77;7.43;;;;;;;;;;4902285;29;20047;-73
2024/01/31 14:22:59;;;;;;;11.15;7.13;;;;;;;;;;4906225;29;20036;-73
2024/01/31 14:25:25;;;;;;;11.73;7.78;;;;;;;;;;4910632;29;20451;-73
2024/01/31 14:27:51;;;;;;;11.85;8.20;;;;;;;;;;4906109;29;20067;-73
2024/01/31 14:30:17;;;;;;;10.82;6.82;;;;;;;;;;4901986;29;20051;-73